This is the latest recevied weather packets stored in our database for station/object K7FRY. If no packets are shown the sender has not sent any weather packets the latest 10 day(s).
| Time | Temp. | Humidity | Pressure | Rain* | Wind** | Luminosity | Snow |
|---|---|---|---|---|---|---|---|
| 1777297603 | 13.89° C | 44% | 1015.8 hPa | 0 mm | - | 55 W/m² | - |
| 1777297299 | 13.33° C | 44% | 1015.8 hPa | 0 mm | - | 51 W/m² | - |
| 1777296997 | 13.33° C | 44% | 1015.9 hPa | 0 mm | - | 47 W/m² | - |
| 1777296693 | 12.22° C | 46% | 1015.5 hPa | 0 mm | - | 43 W/m² | - |
| 1777296379 | 11.11° C | 49% | 1015.5 hPa | 0 mm | - | 38 W/m² | - |
| 1777296075 | 10.56° C | 50% | 1015.2 hPa | 0 mm | - | 34 W/m² | - |
| 1777295772 | 10.56° C | 50% | 1015.4 hPa | 0 mm | - | 29 W/m² | - |
| 1777295470 | 10° C | 51% | 1015.5 hPa | 0 mm | - | 25 W/m² | - |
| 1777295167 | 10° C | 51% | 1015.6 hPa | 0 mm | - | 20 W/m² | - |
| 1777294864 | 10° C | 52% | 1015.2 hPa | 0 mm | - | 16 W/m² | - |
| 1777294558 | 9.44° C | 53% | 1015.1 hPa | 0 mm | - | 12 W/m² | - |
| 1777294255 | 9.44° C | 53% | 1015 hPa | 0 mm | - | 9 W/m² | - |
| 1777293952 | 9.44° C | 53% | 1015.1 hPa | 0 mm | - | 5 W/m² | - |
| 1777293648 | 10° C | 52% | 1015.1 hPa | 0 mm | - | 3 W/m² | - |
| 1777293343 | 10° C | 52% | 1015.2 hPa | 0 mm | - | 0 W/m² | - |
| 1777293039 | 9.44° C | 53% | 1015.1 hPa | 0 mm | - | 0 W/m² | - |
| 1777292738 | 10° C | 52% | 1014.8 hPa | 0 mm | - | 0 W/m² | - |
| 1777292434 | 10.56° C | 50% | 1015 hPa | 0 mm | - | 0 W/m² | - |
| 1777292132 | 10.56° C | 50% | 1014.9 hPa | 0 mm | - | 0 W/m² | - |
| 1777291827 | 11.11° C | 49% | 1014.9 hPa | 0 mm | - | 0 W/m² | - |
| 1777291524 | 11.11° C | 50% | 1014.9 hPa | 0 mm | - | 0 W/m² | - |
| 1777291221 | 10.56° C | 51% | 1014.9 hPa | 0 mm | - | 0 W/m² | - |
| 1777290918 | 10° C | 52% | 1014.7 hPa | 0 mm | - | 0 W/m² | - |
| 1777290615 | 10° C | 52% | 1014.9 hPa | 0 mm | - | 0 W/m² | - |
| 1777290311 | 10° C | 52% | 1014.7 hPa | 0 mm | - | 0 W/m² | - |
* Rain latest hour (hover to see other rain measurements)
** Current wind speed in m/s (hover to see current wind gust speed)